Portada
METAR-TAF:

METAR-TAF

Aeroports :

Pian Rosa, Itàlia

latitud: 45-56N, longitud: 007-42E, altitud: 3480 m

Observació

L'informe es va fer fa 40 minuts, a les 23:55 UTC
Vent 6 kt del Sud-Oest
Temperatura 5°C
Humitat 100%
Pressió 1039 hPa

METAR: LIMH 182355Z AUTO 22006KT //// 05/05 Q1039

Hora: 02:35 (00:35 UTC)


TAF: manca

Observacions i pronòstics meteorològics de més de 4000 aeroports (METAR i TAF).

Les estacions disponibles són els punts grocs i vermells al mapa.

Posi el ratolí al punt desitjat per veure el nom de l'estació.

Feu clic per veure les observacions i els pronòstics meteorològics.

Per canviar el mapa: feu clic els botons verds amb una creu de color negre per apropar; al botó verd amb un guió per allunyar la imatge; o en les fletxes verdes per a mapes adjacents.


METAR-TAF: